Map

Track Data

SID SEASON NUMBER BASIN SUBBASIN NAME ISO_TIME NATURE LAT LON WMO_WIND WMO_PRES WMO_AGENCY TRACK_TYPE DIST2LAND LANDFALL IFLAG USA_AGENCY USA_ATCF_ID USA_LAT USA_LON USA_RECORD USA_STATUS USA_WIND USA_PRES USA_SSHS USA_R34_NE USA_R34_SE USA_R34_SW USA_R34_NW USA_R50_NE USA_R50_SE USA_R50_SW USA_R50_NW USA_R64_NE USA_R64_SE USA_R64_SW USA_R64_NW USA_POCI USA_ROCI USA_RMW USA_EYE TOKYO_LAT TOKYO_LON TOKYO_GRADE TOKYO_WIND TOKYO_PRES TOKYO_R50_DIR TOKYO_R50_LONG TOKYO_R50_SHORT TOKYO_R30_DIR TOKYO_R30_LONG TOKYO_R30_SHORT TOKYO_LAND CMA_LAT CMA_LON CMA_CAT CMA_WIND CMA_PRES HKO_LAT HKO_LON HKO_CAT HKO_WIND HKO_PRES NEWDELHI_LAT NEWDELHI_LON NEWDELHI_GRADE NEWDELHI_WIND NEWDELHI_PRES NEWDELHI_CI NEWDELHI_DP NEWDELHI_POCI REUNION_LAT REUNION_LON REUNION_TYPE REUNION_WIND REUNION_PRES REUNION_TNUM REUNION_CI REUNION_RMW REUNION_R34_NE REUNION_R34_SE REUNION_R34_SW REUNION_R34_NW REUNION_R50_NE REUNION_R50_SE REUNION_R50_SW REUNION_R50_NW REUNION_R64_NE REUNION_R64_SE REUNION_R64_SW REUNION_R64_NW BOM_LAT BOM_LON BOM_TYPE BOM_WIND BOM_PRES BOM_TNUM BOM_CI BOM_RMW BOM_R34_NE BOM_R34_SE BOM_R34_SW BOM_R34_NW BOM_R50_NE BOM_R50_SE BOM_R50_SW BOM_R50_NW BOM_R64_NE BOM_R64_SE BOM_R64_SW BOM_R64_NW BOM_ROCI BOM_POCI BOM_EYE BOM_POS_METHOD BOM_PRES_METHOD NADI_LAT NADI_LON NADI_CAT NADI_WIND NADI_PRES WELLINGTON_LAT WELLINGTON_LON WELLINGTON_WIND WELLINGTON_PRES DS824_LAT DS824_LON DS824_STAGE DS824_WIND DS824_PRES TD9636_LAT TD9636_LON TD9636_STAGE TD9636_WIND TD9636_PRES TD9635_LAT TD9635_LON TD9635_WIND TD9635_PRES TD9635_ROCI NEUMANN_LAT NEUMANN_LON NEUMANN_CLASS NEUMANN_WIND NEUMANN_PRES MLC_LAT MLC_LON MLC_CLASS MLC_WIND MLC_PRES USA_GUST BOM_GUST BOM_GUST_PER REUNION_GUST REUNION_GUST_PER USA_SEAHGT USA_SEARAD_NE USA_SEARAD_SE USA_SEARAD_SW USA_SEARAD_NW STORM_SPEED STORM_DIR
2021029S14162 2021 12 SP MM BINA 2021-01-29 00:00:00 NR -14.0000 162.400 main 358 348 O_____________ jtwc_sh SH162021 -14.0000 162.400 DB 20 1007 -3 1002 160 6 77
2021029S14162 2021 12 SP MM BINA 2021-01-29 03:00:00 NR -13.9252 162.723 main 349 342 P_____________ SH162021 -13.9252 162.723 DB 22 1005 -3 1002 160 6 71
2021029S14162 2021 12 SP MM BINA 2021-01-29 06:00:00 TS -13.8000 163.000 main 344 328 O_____________ jtwc_sh SH162021 -13.8000 163.000 TD 25 1004 -1 1002 160 6 56
2021029S14162 2021 12 SP MM BINA 2021-01-29 09:00:00 TS -13.5998 163.220 main 328 314 P_____________ SH162021 -13.5998 163.220 TD 25 1001 -1 1002 152 6 51
2021029S14162 2021 12 SP MM BINA 2021-01-29 12:00:00 TS -13.4000 163.500 main 319 313 O_____________ jtwc_sh SH162021 -13.4000 163.500 TD 25 999 -1 1002 145 50 7 66
2021029S14162 2021 12 SP MM BINA 2021-01-29 15:00:00 TS -13.2923 163.917 main 327 280 P_____________ SH162021 -13.2923 163.917 TD 25 999 -1 1002 145 50 10 78
2021029S14162 2021 12 SP MM BINA 2021-01-29 18:00:00 TS -13.2000 164.500 main 280 227 O_____________ jtwc_sh SH162021 -13.2000 164.500 TD 25 1000 -1 1002 145 50 14 80
2021029S14162 2021 12 SP MM BINA 2021-01-29 21:00:00 TS -13.0431 165.323 main 236 208 P_____________ SH162021 -13.0431 165.323 TD 25 1000 -1 1002 142 60 16 79
2021029S14162 2021 12 SP MM BINA 2021-01-30 00:00:00 TS -12.9000 166.100 main 208 202 O_____________ jtwc_sh SH162021 -12.9000 166.100 TD 25 1000 -1 1002 140 70 11 81
2021029S14162 2021 12 SP MM BINA 2021-01-30 03:00:00 TS -12.8787 166.397 main 202 201 P_____________ SH162021 -12.8787 166.397 TD 25 999 -1 1001 165 65 7 82
2021029S14162 2021 12 SP MM BINA 2021-01-30 06:00:00 TS -12.8000 166.800 main 213 213 O_____________ jtwc_sh SH162021 -12.8000 166.800 TD 25 999 -1 1001 190 60 15 74
2021029S14162 2021 12 SP MM BINA 2021-01-30 09:00:00 TS -12.4808 167.838 main 278 278 P_____________ SH162021 -12.4808 167.838 TD 27 998 -1 1000 145 60 24 73
2021029S14162 2021 12 SP MM BINA 2021-01-30 12:00:00 TS -12.1000 169.100 main 390 390 O_____________ jtwc_sh SH162021 -12.1000 169.100 TD 30 998 -1 999 100 60 25 74
2021029S14162 2021 12 SP MM BINA 2021-01-30 15:00:00 TS -11.7752 170.275 main 498 498 P_____________ SH162021 -11.7752 170.275 TD 37 994 0 47 47 50 57 999 100 40 22 77
2021029S14162 2021 12 SP MM BINA 2021-01-30 18:00:00 TS -11.6000 171.300 main 593 593 O_____________ jtwc_sh SH162021 -11.6000 171.300 TS 45 990 0 95 95 100 115 999 100 20 17 86
2021029S14162 2021 12 SP MM BINA 2021-01-30 21:00:00 TS -11.6592 172.010 main 646 646 P_____________ SH162021 -11.6592 172.010 TS 45 990 0 95 95 100 115 999 95 20 13 103
2021029S14162 2021 12 SP MM BINA 2021-01-31 00:00:00 TS -11.9000 172.600 main 688 688 O_____________ jtwc_sh SH162021 -11.9000 172.600 TS 45 991 0 95 95 100 115 1000 90 20 14 113
2021029S14162 2021 12 SP MM BINA 2021-01-31 03:00:00 TS -12.2125 173.315 main 740 664 P_____________ SH162021 -12.2125 173.315 TS 47 989 0 95 95 100 115 1000 90 20 15 117
2021029S14162 2021 12 SP MM BINA 2021-01-31 06:00:00 TS -12.6000 174.000 main 664 604 O_____________ jtwc_sh SH162021 -12.6000 174.000 TS 50 988 0 95 95 100 115 45 45 48 58 1000 90 20 14 120
2021029S14162 2021 12 SP MM BINA 2021-01-31 09:00:00 TS -12.8799 174.516 30 996 nadi main 604 535 P_____________ SH162021 -12.9999 174.595 TS 47 990 0 82 67 62 70 1000 90 20 -12.4000 174.200 -1 30 996 12 126
2021029S14162 2021 12 SP MM BINA 2021-01-31 12:00:00 TS -13.3000 175.000 35 995 nadi main 535 480 O_____________ jtwc_sh SH162021 -13.4000 175.100 TS 45 993 0 70 40 25 25 1000 90 20 -13.1000 174.800 1 35 995 12 137
2021029S14162 2021 12 SP MM BINA 2021-01-31 15:00:00 TS -13.7343 175.341 35 995 nadi main 480 403 P_____________ SH162021 -13.6515 175.412 TS 40 993 0 90 72 37 67 999 90 20 -13.9000 175.200 1 35 995 12 135
2021029S14162 2021 12 SP MM BINA 2021-01-31 18:00:00 TS -14.1800 175.900 30 997 nadi main 394 247 O_____________ jtwc_sh SH162021 -14.1000 175.900 TS 35 994 0 110 105 50 110 999 90 20 -14.5000 175.900 -1 30 997 21 131
2021029S14162 2021 12 SP MM BINA 2021-01-31 21:00:00 TS -15.1217 177.002 main 240 79 P_____________ SH162021 -15.1217 177.002 TS 32 995 -1 999 95 25 30 132
2021029S14162 2021 12 SP MM BINA 2021-02-01 00:00:00 TS -16.2000 178.200 main 64 0 O_____________ jtwc_sh SH162021 -16.2000 178.200 TD 30 997 -1 1000 100 30 26 132
2021029S14162 2021 12 SP MM BINA 2021-02-01 03:00:00 TS -16.8838 179.029 main 0 0 P_____________ SH162021 -16.8838 179.029 TD 25 997 -1 1000 100 30 17 129
2021029S14162 2021 12 SP MM BINA 2021-02-01 06:00:00 NR -17.3000 179.600 main 55 O_____________ jtwc_sh SH162021 -17.3000 179.600 DB 20 998 -3 1000 100 30 14 127

Digital Typhoon Data and Search

About IBTrACS Database

This database is a web-friendly format of International Best Track Archive for Climate Stewardship (IBTrACS), a global best track data archive curated by NOAA dating back to 1842.

Updated: 2022-11-16